X  Stänga Metar väderdata för luftfart     EDTY Adolf Würth Airport
Temperatur
15°C Temperatur
13°C Daggpunkt
88% Fuktighet



Vind
11 KM/T
7 MPH
3 M/S
6 KTS



300°
VNV
Nuvarande omständigheter

Ljus Regn Ljus Regn
Tryck 1006.77 (hPa) - 29.73 (inHg)
Synlighet 6 (mil) - 9.7 (km)
Flygplats
Flygplatskod EDTY

Plats: Adolf Würth Airport
Distans: 59 (km)

Metar:
EDTY 210950Z 30006KT 9999 -RA FEW009 15/13 Q1007

Tid: 21-05-2024 11:50 CEST